createdAt,value
2018-04-29T00:02:08.396Z,100329
2018-04-29T00:04:37.530Z,100340
2018-04-29T00:07:05.861Z,100345
2018-04-29T00:09:34.339Z,100347
2018-04-29T00:12:02.877Z,100345
2018-04-29T00:14:31.256Z,100338
2018-04-29T00:16:59.697Z,100330
2018-04-29T00:19:28.002Z,100327
2018-04-29T00:21:56.624Z,100323
2018-04-29T00:24:25.086Z,100317
2018-04-29T00:26:53.418Z,100319
2018-04-29T00:29:21.971Z,100319
2018-04-29T00:31:50.306Z,100319
2018-04-29T00:34:18.601Z,100315
2018-04-29T00:36:47.149Z,100323
2018-04-29T00:39:15.651Z,100323
2018-04-29T00:41:44.137Z,100323
2018-04-29T00:44:12.565Z,100323
2018-04-29T00:46:40.936Z,100315
2018-04-29T00:49:10.002Z,100310
2018-04-29T00:51:56.125Z,100311
2018-04-29T00:54:24.720Z,100308
2018-04-29T00:56:53.927Z,100311
2018-04-29T00:59:22.199Z,100307
2018-04-29T01:01:50.530Z,100307
2018-04-29T01:04:18.932Z,100304
2018-04-29T01:06:47.440Z,100306
2018-04-29T01:09:16.847Z,100301
2018-04-29T01:11:45.304Z,100294
2018-04-29T01:14:13.746Z,100294
2018-04-29T01:16:42.054Z,100300
2018-04-29T01:19:10.432Z,100301
2018-04-29T01:21:38.764Z,100305
2018-04-29T01:24:07.370Z,100315
2018-04-29T01:26:35.640Z,100310
2018-04-29T01:29:04.101Z,100306
2018-04-29T01:31:32.429Z,100309
2018-04-29T01:34:00.736Z,100302
2018-04-29T01:36:29.220Z,100307
2018-04-29T01:38:57.705Z,100301
2018-04-29T01:41:26.264Z,100293
2018-04-29T01:43:55.460Z,100292
2018-04-29T01:46:24.595Z,100297
2018-04-29T01:48:52.891Z,100294
2018-04-29T01:51:21.301Z,100298
2018-04-29T01:53:49.560Z,100299
2018-04-29T01:56:17.892Z,100286
2018-04-29T01:58:46.327Z,100287
2018-04-29T02:01:14.671Z,100293
2018-04-29T02:03:43.180Z,100296
2018-04-29T02:06:11.450Z,100291
2018-04-29T02:08:39.832Z,100279
2018-04-29T02:11:08.345Z,100275
2018-04-29T02:13:36.776Z,100278
2018-04-29T02:16:05.096Z,100273
2018-04-29T02:18:34.777Z,100271
2018-04-29T02:21:03.076Z,100276
2018-04-29T02:23:31.377Z,100272
2018-04-29T02:25:59.642Z,100268
2018-04-29T02:28:28.708Z,100261
2018-04-29T02:30:57.187Z,100261
2018-04-29T02:33:25.577Z,100253
2018-04-29T02:35:54.036Z,100255
2018-04-29T02:38:22.577Z,100265
2018-04-29T02:40:51.007Z,100269
2018-04-29T02:43:19.306Z,100255
2018-04-29T02:45:48.351Z,100258
2018-04-29T02:48:16.618Z,100247
2018-04-29T02:50:45.161Z,100238
2018-04-29T02:53:14.182Z,100247
2018-04-29T02:55:42.472Z,100232
2018-04-29T02:58:10.868Z,100243
2018-04-29T03:00:39.121Z,100243
2018-04-29T03:03:07.799Z,100239
2018-04-29T03:05:36.302Z,100233
2018-04-29T03:08:04.680Z,100235
2018-04-29T03:10:33.018Z,100250
2018-04-29T03:13:01.312Z,100255
2018-04-29T03:15:30.266Z,100250
2018-04-29T03:17:58.713Z,100257
2018-04-29T03:20:27.056Z,100263
2018-04-29T03:22:55.447Z,100256
2018-04-29T03:25:23.773Z,100254
2018-04-29T03:27:52.922Z,100246
2018-04-29T03:30:21.288Z,100244
2018-04-29T03:32:49.563Z,100231
2018-04-29T03:35:18.071Z,100222
2018-04-29T03:37:46.432Z,100224
2018-04-29T03:40:14.730Z,100222
2018-04-29T03:42:43.003Z,100226
2018-04-29T03:45:11.266Z,100225
2018-04-29T03:47:39.741Z,100230
2018-04-29T03:50:08.148Z,100225
2018-04-29T03:52:37.769Z,100225
2018-04-29T03:55:06.036Z,100226
2018-04-29T03:57:52.058Z,100220
2018-04-29T04:00:49.927Z,100214
2018-04-29T04:03:38.402Z,100228
2018-04-29T04:06:06.831Z,100228
2018-04-29T04:08:35.432Z,100218
2018-04-29T04:11:03.758Z,100216
2018-04-29T04:13:32.011Z,100215
2018-04-29T04:16:00.363Z,100207
2018-04-29T04:18:28.646Z,100202
2018-04-29T04:20:57.739Z,100205
2018-04-29T04:23:26.008Z,100211
2018-04-29T04:25:54.301Z,100203
2018-04-29T04:28:23.464Z,100212
2018-04-29T04:30:51.816Z,100218
2018-04-29T04:33:20.113Z,100220
2018-04-29T04:35:48.513Z,100223
2018-04-29T04:38:17.781Z,100215
2018-04-29T04:40:46.196Z,100214
2018-04-29T04:43:14.751Z,100205
2018-04-29T04:45:43.145Z,100196
2018-04-29T04:48:11.518Z,100203
2018-04-29T04:50:40.029Z,100207
2018-04-29T04:53:09.289Z,100215
2018-04-29T04:55:37.629Z,100215
2018-04-29T04:58:06.186Z,100210
2018-04-29T05:00:35.416Z,100217
2018-04-29T05:03:03.697Z,100212
2018-04-29T05:05:33.937Z,100207
2018-04-29T05:08:02.216Z,100206
2018-04-29T05:10:30.514Z,100210
2018-04-29T05:12:58.896Z,100207
2018-04-29T05:15:27.182Z,100199
2018-04-29T05:17:57.007Z,100203
2018-04-29T05:20:25.348Z,100193
2018-04-29T05:22:53.657Z,100191
2018-04-29T05:25:22.863Z,100197
2018-04-29T05:27:52.062Z,100198
2018-04-29T05:30:21.237Z,100207
2018-04-29T05:32:50.348Z,100210
2018-04-29T05:35:18.720Z,100217
2018-04-29T05:37:48.047Z,100225
2018-04-29T05:40:16.325Z,100231
2018-04-29T05:42:44.608Z,100229
2018-04-29T05:45:12.941Z,100242
2018-04-29T05:47:41.243Z,100246
2018-04-29T05:50:10.547Z,100238
2018-04-29T05:52:41.025Z,100246
2018-04-29T05:55:10.377Z,100245
2018-04-29T05:57:38.759Z,100229
2018-04-29T06:00:07.115Z,100225
2018-04-29T06:02:36.188Z,100217
2018-04-29T06:05:05.490Z,100214
2018-04-29T06:07:33.789Z,100209
2018-04-29T06:10:02.874Z,100204
2018-04-29T06:12:31.272Z,100199
2018-04-29T06:14:59.562Z,100192
2018-04-29T06:17:28.593Z,100187
2018-04-29T06:19:56.954Z,100185
2018-04-29T06:22:25.274Z,100181
2018-04-29T06:24:53.549Z,100173
2018-04-29T06:27:23.500Z,100167
2018-04-29T06:29:51.814Z,100157
2018-04-29T06:32:20.318Z,100154
2018-04-29T06:34:48.629Z,100148
2018-04-29T06:37:16.994Z,100131
2018-04-29T06:39:46.048Z,100120
2018-04-29T06:42:14.417Z,100125
2018-04-29T06:44:43.533Z,100130
2018-04-29T06:47:11.872Z,100132
2018-04-29T06:49:40.697Z,100130
2018-04-29T06:52:10.011Z,100125
2018-04-29T06:54:38.315Z,100122
2018-04-29T06:57:07.404Z,100127
2018-04-29T06:59:36.519Z,100130
2018-04-29T07:02:04.844Z,100134
2018-04-29T07:04:33.398Z,100128
2018-04-29T07:07:01.846Z,100123
2018-04-29T07:09:30.220Z,100126
2018-04-29T07:12:01.369Z,100131
2018-04-29T07:14:30.736Z,100135
2018-04-29T07:16:59.229Z,100142
2018-04-29T07:19:27.539Z,100142
2018-04-29T07:21:55.843Z,100141
2018-04-29T07:24:24.186Z,100137
2018-04-29T07:26:52.469Z,100146
2018-04-29T07:29:20.826Z,100157
2018-04-29T07:31:49.931Z,100153
2018-04-29T07:34:19.071Z,100154
2018-04-29T07:36:47.386Z,100161
2018-04-29T07:39:15.704Z,100170
2018-04-29T07:41:44.242Z,100181
2018-04-29T07:44:12.641Z,100187
2018-04-29T07:46:42.184Z,100184
2018-04-29T07:49:10.508Z,100179
2018-04-29T07:51:38.913Z,100177
2018-04-29T07:54:07.211Z,100184
2018-04-29T07:56:35.660Z,100184
2018-04-29T07:59:04.860Z,100188
2018-04-29T08:01:35.270Z,100174
2018-04-29T08:04:03.601Z,100158
2018-04-29T08:06:31.960Z,100148
2018-04-29T08:09:00.501Z,100136
2018-04-29T08:11:28.784Z,100138
2018-04-29T08:13:57.055Z,100139
2018-04-29T08:16:25.491Z,100135
2018-04-29T08:18:53.852Z,100136
2018-04-29T08:21:22.291Z,100139
2018-04-29T08:23:51.426Z,100133
2018-04-29T08:26:19.830Z,100122
2018-04-29T08:28:48.161Z,100122
2018-04-29T08:31:16.519Z,100116
2018-04-29T08:33:44.810Z,100118
2018-04-29T08:36:13.969Z,100115
2018-04-29T08:38:43.221Z,100110
2018-04-29T08:41:13.481Z,100111
2018-04-29T08:43:41.991Z,100112
2018-04-29T08:46:10.561Z,100099
2018-04-29T08:48:38.996Z,100095
2018-04-29T08:51:08.048Z,100099
2018-04-29T08:53:36.406Z,100104
2018-04-29T08:56:04.736Z,100109
2018-04-29T08:58:33.109Z,100115
2018-04-29T09:01:02.198Z,100111
2018-04-29T09:03:31.356Z,100115
2018-04-29T09:05:59.676Z,100112
2018-04-29T09:08:28.763Z,100106
2018-04-29T09:10:58.143Z,100099
2018-04-29T09:13:26.489Z,100088
2018-04-29T09:15:54.868Z,100078
2018-04-29T09:18:23.645Z,100094
2018-04-29T09:20:52.466Z,100087
2018-04-29T09:23:22.267Z,100092
2018-04-29T09:25:52.603Z,100097
2018-04-29T09:28:21.241Z,100099
2018-04-29T09:30:49.656Z,100095
2018-04-29T09:33:17.989Z,100091
2018-04-29T09:35:47.242Z,100086
2018-04-29T09:38:15.558Z,100082
2018-04-29T09:40:43.897Z,100075
2018-04-29T09:43:12.324Z,100071
2018-04-29T09:45:40.733Z,100064
2018-04-29T09:48:09.106Z,100055
2018-04-29T09:50:37.687Z,100053
2018-04-29T09:53:06.071Z,100051
2018-04-29T09:55:34.405Z,100039
2018-04-29T09:58:03.502Z,100026
2018-04-29T10:00:32.904Z,100021
2018-04-29T10:03:07.860Z,100022
2018-04-29T10:05:36.223Z,100022
2018-04-29T10:08:05.357Z,100014
2018-04-29T10:10:33.706Z,100011
2018-04-29T10:13:02.825Z,100006
2018-04-29T10:15:31.208Z,100003
2018-04-29T10:17:59.790Z,100001
2018-04-29T10:20:28.177Z,100005
2018-04-29T10:22:56.735Z,100002
2018-04-29T10:25:25.051Z,100007
2018-04-29T10:27:53.407Z,100002
2018-04-29T10:30:21.829Z,99991
2018-04-29T10:32:50.187Z,99999
2018-04-29T10:35:18.597Z,99988
2018-04-29T10:37:47.081Z,99982
2018-04-29T10:40:18.253Z,99978
2018-04-29T10:42:46.697Z,99972
2018-04-29T10:45:15.087Z,99964
2018-04-29T10:47:44.450Z,99953
2018-04-29T10:50:12.776Z,99942
2018-04-29T10:52:42.005Z,99930
2018-04-29T10:55:10.389Z,99914
2018-04-29T10:57:39.694Z,99909
2018-04-29T11:00:08.062Z,99912
2018-04-29T11:02:36.511Z,99905
2018-04-29T11:05:05.806Z,99908
2018-04-29T11:07:35.022Z,99912
2018-04-29T11:10:03.387Z,99913
2018-04-29T11:12:31.751Z,99912
2018-04-29T11:15:00.046Z,99901
2018-04-29T11:17:29.249Z,99883
2018-04-29T11:19:57.659Z,99876
2018-04-29T11:22:26.132Z,99861
2018-04-29T11:24:54.426Z,99858
2018-04-29T11:27:22.729Z,99867
2018-04-29T11:29:51.290Z,99866
2018-04-29T11:32:19.568Z,99864
2018-04-29T11:34:47.911Z,99875
2018-04-29T11:37:16.261Z,99870
2018-04-29T11:39:45.416Z,99864
2018-04-29T11:42:13.680Z,99853
2018-04-29T11:44:42.144Z,99851
2018-04-29T11:47:11.466Z,99847
2018-04-29T11:49:39.841Z,99846
2018-04-29T11:52:08.175Z,99845
2018-04-29T11:54:37.360Z,99827
2018-04-29T11:57:06.495Z,99826
2018-04-29T11:59:34.882Z,99821
2018-04-29T12:02:03.259Z,99822
2018-04-29T12:04:31.860Z,99830
2018-04-29T12:07:00.390Z,99832
2018-04-29T12:09:29.616Z,99851
2018-04-29T12:11:58.047Z,99863
2018-04-29T12:14:27.144Z,99866
2018-04-29T12:16:56.363Z,99863
2018-04-29T12:19:25.550Z,99842
2018-04-29T12:21:54.001Z,99810
2018-04-29T12:24:22.287Z,99786
2018-04-29T12:26:50.580Z,99779
2018-04-29T12:29:18.875Z,99769
2018-04-29T12:31:48.366Z,99774
2018-04-29T12:34:19.398Z,99781
2018-04-29T12:36:49.923Z,99780
2018-04-29T12:39:18.275Z,99784
2018-04-29T12:41:46.620Z,99789
2018-04-29T12:44:14.952Z,99787
2018-04-29T12:46:44.165Z,99784
2018-04-29T12:49:13.166Z,99787
2018-04-29T12:51:42.422Z,99783
2018-04-29T12:54:10.849Z,99779
2018-04-29T12:56:39.442Z,99768
2018-04-29T12:59:08.592Z,99769
2018-04-29T13:01:36.912Z,99754
2018-04-29T13:04:05.298Z,99761
2018-04-29T13:06:33.915Z,99756
2018-04-29T13:09:02.368Z,99748
2018-04-29T13:11:30.777Z,99751
2018-04-29T13:13:59.200Z,99743
2018-04-29T13:16:28.322Z,99736
2018-04-29T13:18:56.665Z,99733
2018-04-29T13:21:25.265Z,99727
2018-04-29T13:23:53.577Z,99714
2018-04-29T13:26:21.999Z,99703
2018-04-29T13:28:50.335Z,99703
2018-04-29T13:31:18.655Z,99694
2018-04-29T13:33:46.988Z,99682
2018-04-29T13:36:15.280Z,99677
2018-04-29T13:38:44.871Z,99670
2018-04-29T13:41:13.200Z,99659
2018-04-29T13:43:41.753Z,99655
2018-04-29T13:46:10.062Z,99653
2018-04-29T13:48:39.151Z,99643
2018-04-29T13:51:07.502Z,99630
2018-04-29T13:53:36.007Z,99624
2018-04-29T13:56:04.340Z,99619
2018-04-29T13:58:32.800Z,99621
2018-04-29T14:01:01.159Z,99615
2018-04-29T14:03:30.491Z,99621
2018-04-29T14:05:58.719Z,99608
2018-04-29T14:08:27.012Z,99610
2018-04-29T14:10:56.240Z,99607
2018-04-29T14:13:24.596Z,99596
2018-04-29T14:15:53.090Z,99599
2018-04-29T14:18:21.796Z,99599
2018-04-29T14:20:50.232Z,99597
2018-04-29T14:23:18.491Z,99590
2018-04-29T14:25:46.768Z,99586
2018-04-29T14:28:15.480Z,99584
2018-04-29T14:30:43.816Z,99579
2018-04-29T14:33:12.274Z,99581
2018-04-29T14:35:40.606Z,99580
2018-04-29T14:38:11.069Z,99576
2018-04-29T14:40:40.745Z,99570
2018-04-29T14:43:09.101Z,99570
2018-04-29T14:45:37.609Z,99571
2018-04-29T14:48:06.776Z,99571
2018-04-29T14:50:35.108Z,99578
2018-04-29T14:53:03.466Z,99584
2018-04-29T14:55:31.904Z,99585
2018-04-29T14:58:00.262Z,99588
2018-04-29T15:00:28.681Z,99588
2018-04-29T15:02:57.902Z,99587
2018-04-29T15:05:27.342Z,99584
2018-04-29T15:07:55.804Z,99588
2018-04-29T15:10:24.296Z,99587
2018-04-29T15:12:54.401Z,99582
2018-04-29T15:15:23.028Z,99584
2018-04-29T15:17:51.607Z,99590
2018-04-29T15:20:19.988Z,99589
2018-04-29T15:22:48.339Z,99581
2018-04-29T15:25:16.927Z,99579
2018-04-29T15:27:45.294Z,99590
2018-04-29T15:30:13.701Z,99584
2018-04-29T15:32:42.008Z,99592
2018-04-29T15:35:11.345Z,99600
2018-04-29T15:37:39.638Z,99593
2018-04-29T15:40:07.969Z,99588
2018-04-29T15:42:37.199Z,99581
2018-04-29T15:45:05.671Z,99586
2018-04-29T15:47:34.025Z,99583
2018-04-29T15:50:02.544Z,99581
2018-04-29T15:52:31.166Z,99580
2018-04-29T15:54:59.534Z,99576
2018-04-29T15:57:27.894Z,99569
2018-04-29T15:59:56.371Z,99564
2018-04-29T16:02:24.690Z,99555
2018-04-29T16:04:53.905Z,99543
2018-04-29T16:07:23.126Z,99538
2018-04-29T16:09:51.620Z,99529
2018-04-29T16:12:19.968Z,99532
2018-04-29T16:14:49.985Z,99530
2018-04-29T16:17:20.216Z,99535
2018-04-29T16:19:48.841Z,99530
2018-04-29T16:22:17.316Z,99526
2018-04-29T16:24:46.655Z,99523
2018-04-29T16:27:15.009Z,99521
2018-04-29T16:29:43.680Z,99519
2018-04-29T16:32:12.040Z,99516
2018-04-29T16:34:40.932Z,99519
2018-04-29T16:37:09.223Z,99510
2018-04-29T16:39:37.605Z,99502
2018-04-29T16:42:06.081Z,99505
2018-04-29T16:44:34.723Z,99498
2018-04-29T16:47:03.878Z,99503
2018-04-29T16:49:33.331Z,99492
2018-04-29T16:52:01.942Z,99494
2018-04-29T16:54:30.409Z,99491
2018-04-29T16:56:59.023Z,99488
2018-04-29T16:59:27.516Z,99480
2018-04-29T17:01:56.137Z,99476
2018-04-29T17:04:25.237Z,99472
2018-04-29T17:06:53.865Z,99473
2018-04-29T17:09:22.237Z,99478
2018-04-29T17:11:50.505Z,99477
2018-04-29T17:14:18.811Z,99446
2018-04-29T17:16:47.220Z,99467
2018-04-29T17:19:16.610Z,99470
2018-04-29T17:21:45.856Z,99469
2018-04-29T17:24:14.367Z,99466
2018-04-29T17:26:42.713Z,99458
2018-04-29T17:29:11.173Z,99460
2018-04-29T17:31:39.397Z,99460
2018-04-29T17:34:08.046Z,99450
2018-04-29T17:36:36.412Z,99446
2018-04-29T17:39:05.701Z,99447
2018-04-29T17:41:34.959Z,99449
2018-04-29T17:44:03.416Z,99448
2018-04-29T17:46:31.789Z,99450
2018-04-29T17:49:00.257Z,99447
2018-04-29T17:51:30.285Z,99442
2018-04-29T17:53:58.818Z,99442
2018-04-29T17:56:27.433Z,99440
2018-04-29T17:58:56.591Z,99436
2018-04-29T18:01:25.196Z,99439
2018-04-29T18:03:53.767Z,99439
2018-04-29T18:06:22.147Z,99440
2018-04-29T18:08:50.702Z,99441
2018-04-29T18:11:19.189Z,99437
2018-04-29T18:13:47.608Z,99434
2018-04-29T18:16:16.792Z,99436
2018-04-29T18:18:45.467Z,99432
2018-04-29T18:21:14.005Z,99424
2018-04-29T18:23:43.878Z,99418
2018-04-29T18:26:12.300Z,99424
2018-04-29T18:28:40.671Z,99417
2018-04-29T18:31:09.116Z,99408
2018-04-29T18:33:37.474Z,99404
2018-04-29T18:36:06.229Z,99399
2018-04-29T18:38:34.707Z,99401
2018-04-29T18:41:03.618Z,99401
2018-04-29T18:43:32.139Z,99406
2018-04-29T18:46:00.886Z,99407
2018-04-29T18:48:29.417Z,99367
2018-04-29T18:50:57.826Z,99402
2018-04-29T18:53:26.228Z,99398
2018-04-29T18:55:54.558Z,99384
2018-04-29T18:58:23.853Z,99386
2018-04-29T19:00:53.281Z,99378
2018-04-29T19:03:21.811Z,99372
2018-04-29T19:05:50.251Z,99379
2018-04-29T19:08:18.743Z,99370
2018-04-29T19:10:47.351Z,99378
2018-04-29T19:13:15.709Z,99376
2018-04-29T19:15:44.069Z,99373
2018-04-29T19:18:12.542Z,99371
2018-04-29T19:20:40.934Z,99372
2018-04-29T19:23:09.471Z,99363
2018-04-29T19:25:38.946Z,99369
2018-04-29T19:28:07.347Z,99371
2018-04-29T19:30:35.718Z,99372
2018-04-29T19:33:04.178Z,99365
2018-04-29T19:35:32.745Z,99365
2018-04-29T19:38:01.243Z,99359
2018-04-29T19:40:29.999Z,99359
2018-04-29T19:42:58.418Z,99358
2018-04-29T19:45:26.777Z,99360
2018-04-29T19:47:55.142Z,99357
2018-04-29T19:50:23.566Z,99354
2018-04-29T19:52:51.967Z,99351
2018-04-29T19:55:21.498Z,99344
2018-04-29T19:57:50.913Z,99334
2018-04-29T20:00:19.167Z,99319
2018-04-29T20:02:47.542Z,99310
2018-04-29T20:05:16.907Z,99301
2018-04-29T20:07:45.501Z,99293
2018-04-29T20:10:13.957Z,99289
2018-04-29T20:12:42.304Z,99276
2018-04-29T20:15:10.792Z,99269
2018-04-29T20:17:39.381Z,99261
2018-04-29T20:20:08.065Z,99245
2018-04-29T20:22:36.505Z,99230
2018-04-29T20:25:05.085Z,99218
2018-04-29T20:27:33.685Z,99205
2018-04-29T20:30:03.008Z,99206
2018-04-29T20:32:50.933Z,99190
2018-04-29T20:35:19.349Z,99177
2018-04-29T20:37:47.917Z,99172
2018-04-29T20:40:17.529Z,99162
2018-04-29T20:42:46.424Z,99160
2018-04-29T20:45:14.880Z,99157
2018-04-29T20:47:44.412Z,99151
2018-04-29T20:50:12.871Z,99147
2018-04-29T20:52:41.464Z,99136
2018-04-29T20:55:10.107Z,99138
2018-04-29T20:57:39.241Z,99135
2018-04-29T21:00:07.673Z,99133
2018-04-29T21:02:36.091Z,99130
2018-04-29T21:05:04.610Z,99119
2018-04-29T21:07:32.964Z,99107
2018-04-29T21:10:01.469Z,99106
2018-04-29T21:12:29.863Z,99107
2018-04-29T21:14:58.278Z,99110
2018-04-29T21:17:26.664Z,99099
2018-04-29T21:19:57.018Z,99088
2018-04-29T21:22:25.463Z,99079
2018-04-29T21:24:53.763Z,99071
2018-04-29T21:27:22.198Z,99064
2018-04-29T21:29:51.323Z,99056
2018-04-29T21:32:19.744Z,99047
2018-04-29T21:34:48.095Z,99039
2018-04-29T21:37:16.690Z,99034
2018-04-29T21:39:45.197Z,99035
2018-04-29T21:42:13.706Z,99021
2018-04-29T21:44:42.790Z,99024
2018-04-29T21:47:11.247Z,99025
2018-04-29T21:49:39.612Z,99022
2018-04-29T21:52:09.553Z,98997
2018-04-29T21:54:37.935Z,99017
2018-04-29T21:57:06.579Z,99018
2018-04-29T21:59:35.027Z,99015
2018-04-29T22:02:03.347Z,99008
2018-04-29T22:04:31.718Z,99009
2018-04-29T22:07:00.287Z,99004
2018-04-29T22:09:28.602Z,99005
2018-04-29T22:11:56.973Z,99005
2018-04-29T22:14:25.303Z,98994
2018-04-29T22:16:53.639Z,98989
2018-04-29T22:19:21.955Z,98976
2018-04-29T22:21:51.246Z,98965
2018-04-29T22:24:21.368Z,98955
2018-04-29T22:26:51.429Z,98941
2018-04-29T22:29:21.530Z,98925
2018-04-29T22:31:51.919Z,98916
2018-04-29T22:34:21.533Z,98909
2018-04-29T22:36:51.113Z,98910
2018-04-29T22:39:19.435Z,98900
2018-04-29T22:41:47.852Z,98888
2018-04-29T22:44:16.129Z,98893
2018-04-29T22:46:44.419Z,98883
2018-04-29T22:49:12.738Z,98880
2018-04-29T22:51:41.079Z,98889
2018-04-29T22:54:09.553Z,98879
2018-04-29T22:56:38.104Z,98872
2018-04-29T22:59:06.545Z,98860
2018-04-29T23:01:34.839Z,98848
2018-04-29T23:04:03.228Z,98846
2018-04-29T23:06:31.452Z,98852
2018-04-29T23:09:01.012Z,98843
2018-04-29T23:11:29.561Z,98834
2018-04-29T23:13:57.881Z,98833
2018-04-29T23:16:26.365Z,98831
2018-04-29T23:18:54.647Z,98843
2018-04-29T23:21:23.075Z,98910
2018-04-29T23:23:52.379Z,98999
2018-04-29T23:26:21.583Z,99012
2018-04-29T23:28:51.226Z,98972
2018-04-29T23:31:19.528Z,98958
2018-04-29T23:33:47.908Z,98977
2018-04-29T23:36:16.238Z,98960
2018-04-29T23:38:44.654Z,98945
2018-04-29T23:41:14.073Z,98915
2018-04-29T23:43:44.496Z,98883
2018-04-29T23:46:12.877Z,98875
2018-04-29T23:48:41.249Z,98908
2018-04-29T23:51:09.545Z,98929
2018-04-29T23:53:37.829Z,98964
2018-04-29T23:56:06.142Z,98980
2018-04-29T23:58:34.489Z,98988
